createdAt,value
2022-09-15T00:01:18.118Z,8.05
2022-09-15T00:03:46.318Z,7.22
2022-09-15T00:06:33.682Z,6.97
2022-09-15T00:12:12.119Z,7.55
2022-09-15T00:14:51.049Z,7.28
2022-09-15T00:17:40.634Z,7.03
2022-09-15T00:20:40.035Z,7.97
2022-09-15T00:23:13.695Z,6.72
2022-09-15T00:25:57.705Z,7.38
2022-09-15T00:28:48.573Z,7.82
2022-09-15T00:34:41.739Z,5.82
2022-09-15T00:37:40.048Z,6.40
2022-09-15T00:40:45.403Z,6.95
2022-09-15T00:43:54.260Z,6.32
2022-09-15T00:51:06.284Z,7.53
2022-09-15T00:53:41.543Z,7.10
2022-09-15T00:56:33.483Z,7.38
2022-09-15T01:03:02.796Z,7.68
2022-09-15T01:05:54.609Z,7.05
2022-09-15T01:11:57.129Z,5.90
2022-09-15T01:14:52.528Z,6.85
2022-09-15T01:17:53.619Z,5.82
2022-09-15T01:20:55.502Z,6.13
2022-09-15T01:23:58.532Z,5.43
2022-09-15T01:27:37.642Z,4.57
2022-09-15T01:30:19.163Z,5.20
2022-09-15T01:33:13.930Z,5.47
2022-09-15T01:35:57.298Z,7.60
2022-09-15T01:38:42.603Z,6.95
2022-09-15T01:41:26.786Z,6.93
2022-09-15T01:44:07.098Z,4.60
2022-09-15T01:46:40.838Z,4.85
2022-09-15T01:49:12.209Z,5.53
2022-09-15T01:51:41.323Z,4.05
2022-09-15T01:54:09.148Z,4.38
2022-09-15T01:56:37.855Z,5.57
2022-09-15T01:59:05.530Z,3.80
2022-09-15T02:01:47.484Z,3.78
2022-09-15T02:04:18.149Z,3.25
2022-09-15T02:07:23.939Z,3.40
2022-09-15T02:10:02.017Z,3.67
2022-09-15T02:12:39.860Z,3.08
2022-09-15T02:15:15.272Z,3.17
2022-09-15T02:17:46.148Z,3.10
2022-09-15T02:20:34.547Z,3.55
2022-09-15T02:23:31.027Z,5.07
2022-09-15T02:26:05.139Z,3.75
2022-09-15T02:28:36.001Z,4.93
2022-09-15T02:31:06.428Z,4.07
2022-09-15T02:33:37.800Z,5.32
2022-09-15T02:36:06.424Z,4.18
2022-09-15T02:38:41.121Z,3.85
2022-09-15T02:41:08.935Z,5.15
2022-09-15T02:43:49.415Z,4.60
2022-09-15T02:46:19.539Z,4.07
2022-09-15T02:48:46.795Z,4.68
2022-09-15T02:51:14.659Z,4.30
2022-09-15T02:53:43.573Z,7.28
2022-09-15T02:56:10.839Z,4.07
2022-09-15T02:58:37.943Z,6.05
2022-09-15T03:01:07.464Z,4.70
2022-09-15T03:03:36.430Z,8.65
2022-09-15T03:06:17.549Z,4.53
2022-09-15T03:08:53.073Z,4.35
2022-09-15T03:11:22.339Z,5.07
2022-09-15T03:13:54.433Z,5.30
2022-09-15T03:16:22.190Z,5.85
2022-09-15T03:18:49.714Z,6.07
2022-09-15T03:21:18.734Z,5.63
2022-09-15T03:23:46.643Z,5.82
2022-09-15T03:26:14.238Z,5.70
2022-09-15T03:28:41.871Z,6.28
2022-09-15T03:31:10.076Z,6.63
2022-09-15T03:33:37.773Z,6.65
2022-09-15T03:36:05.624Z,7.47
2022-09-15T03:38:32.798Z,9.48
2022-09-15T03:41:04.774Z,7.10
2022-09-15T03:43:33.252Z,6.65
2022-09-15T03:46:01.137Z,6.07
2022-09-15T03:48:31.768Z,6.30
2022-09-15T03:50:59.036Z,6.10
2022-09-15T03:53:26.179Z,7.78
2022-09-15T03:55:53.906Z,6.43
2022-09-15T03:58:21.253Z,6.43
2022-09-15T04:00:48.480Z,6.43
2022-09-15T04:03:15.720Z,6.30
2022-09-15T04:05:42.799Z,6.65
2022-09-15T04:08:13.295Z,6.20
2022-09-15T04:10:41.440Z,6.20
2022-09-15T04:13:09.108Z,6.38
2022-09-15T04:15:36.181Z,8.18
2022-09-15T04:18:05.110Z,5.85
2022-09-15T04:20:32.664Z,6.40
2022-09-15T04:22:59.864Z,6.03
2022-09-15T04:25:28.083Z,5.40
2022-09-15T04:27:56.694Z,6.82
2022-09-15T04:30:24.185Z,6.03
2022-09-15T04:32:51.976Z,6.07
2022-09-15T04:35:19.465Z,5.72
2022-09-15T04:37:46.830Z,5.45
2022-09-15T04:40:13.993Z,6.18
2022-09-15T04:42:41.596Z,6.20
2022-09-15T04:45:09.335Z,6.25
2022-09-15T04:47:36.441Z,6.32
2022-09-15T04:50:03.894Z,5.25
2022-09-15T04:52:31.522Z,5.38
2022-09-15T04:54:58.680Z,5.32
2022-09-15T04:57:25.875Z,5.45
2022-09-15T04:59:53.028Z,6.13
2022-09-15T05:02:20.360Z,5.70
2022-09-15T05:04:50.323Z,8.90
2022-09-15T05:07:18.290Z,5.25
2022-09-15T05:09:46.260Z,6.18
2022-09-15T05:12:14.354Z,6.63
2022-09-15T05:14:41.462Z,5.50
2022-09-15T05:17:08.639Z,4.90
2022-09-15T05:19:35.772Z,5.70
2022-09-15T05:22:02.989Z,4.88
2022-09-15T05:24:30.146Z,5.47
2022-09-15T05:26:57.188Z,6.05
2022-09-15T05:29:24.339Z,6.47
2022-09-15T05:31:51.907Z,6.20
2022-09-15T05:34:19.134Z,5.80
2022-09-15T05:36:46.263Z,6.50
2022-09-15T05:39:13.472Z,7.45
2022-09-15T05:41:41.748Z,6.15
2022-09-15T05:44:11.597Z,11.98
2022-09-15T05:46:38.770Z,7.90
2022-09-15T05:49:06.548Z,10.25
2022-09-15T05:51:33.662Z,8.82
2022-09-15T05:54:00.954Z,8.10
2022-09-15T05:56:28.074Z,7.00
2022-09-15T05:58:55.355Z,6.88
2022-09-15T06:01:25.360Z,6.82
2022-09-15T06:03:53.677Z,7.53
2022-09-15T06:06:24.602Z,6.60
2022-09-15T06:08:58.981Z,5.97
2022-09-15T06:11:30.022Z,8.70
2022-09-15T06:14:00.609Z,7.28
2022-09-15T06:16:28.729Z,6.05
2022-09-15T06:18:55.813Z,5.68
2022-09-15T06:21:25.002Z,6.03
2022-09-15T06:23:57.333Z,6.07
2022-09-15T06:26:25.702Z,4.35
2022-09-15T06:28:55.812Z,4.20
2022-09-15T06:31:24.052Z,4.25
2022-09-15T06:33:54.584Z,6.18
2022-09-15T06:36:24.559Z,5.32
2022-09-15T06:38:51.895Z,6.35
2022-09-15T06:41:19.624Z,4.57
2022-09-15T06:43:49.314Z,4.40
2022-09-15T06:46:22.745Z,6.07
2022-09-15T06:48:51.427Z,4.55
2022-09-15T06:51:22.834Z,4.40
2022-09-15T06:53:50.585Z,5.47
2022-09-15T06:56:20.256Z,4.25
2022-09-15T06:58:51.310Z,7.07
2022-09-15T07:01:24.208Z,4.95
2022-09-15T07:03:51.778Z,3.90
2022-09-15T07:06:20.193Z,4.90
2022-09-15T07:08:47.836Z,5.50
2022-09-15T07:11:15.761Z,4.65
2022-09-15T07:13:43.331Z,3.70
2022-09-15T07:16:12.784Z,4.32
2022-09-15T07:18:43.198Z,4.43
2022-09-15T07:21:16.681Z,5.32
2022-09-15T07:23:44.745Z,6.20
2022-09-15T07:26:16.319Z,3.35
2022-09-15T07:28:47.084Z,4.30
2022-09-15T07:31:16.857Z,4.47
2022-09-15T07:33:44.589Z,5.55
2022-09-15T07:36:12.214Z,3.50
2022-09-15T07:38:42.080Z,3.20
2022-09-15T07:41:15.759Z,5.40
2022-09-15T07:44:01.436Z,4.60
2022-09-15T07:46:32.510Z,2.80
2022-09-15T07:49:00.890Z,5.18
2022-09-15T07:51:28.161Z,2.60
2022-09-15T07:53:55.699Z,2.72
2022-09-15T07:56:24.115Z,2.55
2022-09-15T07:58:51.870Z,4.35
2022-09-15T08:01:20.597Z,3.10
2022-09-15T08:04:01.277Z,2.38
2022-09-15T08:06:29.604Z,2.92
2022-09-15T08:09:00.656Z,2.65
2022-09-15T08:11:28.678Z,3.15
2022-09-15T08:13:55.884Z,2.70
2022-09-15T08:16:24.932Z,2.65
2022-09-15T08:18:54.936Z,2.33
2022-09-15T08:21:23.970Z,2.40
2022-09-15T08:23:57.460Z,4.47
2022-09-15T08:26:25.943Z,2.75
2022-09-15T08:28:53.580Z,2.20
2022-09-15T08:31:24.210Z,2.30
2022-09-15T08:33:53.563Z,3.13
2022-09-15T08:36:21.118Z,2.70
2022-09-15T08:38:49.065Z,2.47
2022-09-15T08:41:23.004Z,4.82
2022-09-15T08:43:59.803Z,2.50
2022-09-15T08:46:47.489Z,5.93
2022-09-15T08:49:50.165Z,2.85
2022-09-15T08:52:41.770Z,2.45
2022-09-15T08:55:39.333Z,2.38
2022-09-15T08:58:06.769Z,3.25
2022-09-15T09:00:34.109Z,2.53
2022-09-15T09:03:19.515Z,2.90
2022-09-15T09:06:15.866Z,4.88
2022-09-15T09:09:05.394Z,2.40
2022-09-15T09:12:10.388Z,3.15
2022-09-15T09:14:47.946Z,2.78
2022-09-15T09:17:15.140Z,2.53
2022-09-15T09:20:36.878Z,3.55
2022-09-15T09:23:11.555Z,4.68
2022-09-15T09:25:38.899Z,5.40
2022-09-15T09:28:09.797Z,4.68
2022-09-15T09:30:39.664Z,3.63
2022-09-15T09:33:25.148Z,2.80
2022-09-15T09:35:53.990Z,5.05
2022-09-15T09:41:21.107Z,2.95
2022-09-15T09:43:51.924Z,2.90
2022-09-15T09:46:26.229Z,3.42
2022-09-15T09:49:20.693Z,3.13
2022-09-15T09:51:57.706Z,4.78
2022-09-15T09:54:33.684Z,2.65
2022-09-15T09:57:22.991Z,2.72
2022-09-15T09:59:51.738Z,2.75
2022-09-15T10:02:25.321Z,3.63
2022-09-15T10:05:21.219Z,3.63
2022-09-15T10:07:51.539Z,4.97
2022-09-15T10:10:24.873Z,2.50
2022-09-15T10:12:56.695Z,6.85
2022-09-15T10:15:29.077Z,7.53
2022-09-15T10:17:57.230Z,4.63
2022-09-15T10:20:28.729Z,3.30
2022-09-15T10:23:05.022Z,3.33
2022-09-15T10:25:57.514Z,3.35
2022-09-15T10:28:26.158Z,2.55
2022-09-15T10:31:00.871Z,3.35
2022-09-15T10:33:30.968Z,4.65
2022-09-15T10:36:16.832Z,3.20
2022-09-15T10:38:49.324Z,4.25
2022-09-15T10:41:31.518Z,2.28
2022-09-15T10:44:13.819Z,3.35
2022-09-15T10:46:55.441Z,3.80
2022-09-15T10:49:22.449Z,1.60
2022-09-15T10:52:08.372Z,3.05
2022-09-15T10:55:11.589Z,2.00
2022-09-15T10:58:09.377Z,2.55
2022-09-15T11:00:50.340Z,2.65
2022-09-15T11:03:27.383Z,2.35
2022-09-15T11:06:18.467Z,2.85
2022-09-15T11:09:00.973Z,4.13
2022-09-15T11:12:19.235Z,2.03
2022-09-15T11:15:20.453Z,1.67
2022-09-15T11:18:14.997Z,1.48
2022-09-15T11:21:11.276Z,4.63
2022-09-15T11:23:45.669Z,2.53
2022-09-15T11:26:33.588Z,3.72
2022-09-15T11:29:07.908Z,4.55
2022-09-15T11:31:41.231Z,1.35
2022-09-15T11:34:28.639Z,2.10
2022-09-15T11:37:05.544Z,1.70
2022-09-15T11:39:50.049Z,1.40
2022-09-15T11:42:26.089Z,2.17
2022-09-15T11:44:55.564Z,1.70
2022-09-15T11:47:26.418Z,1.85
2022-09-15T11:50:22.867Z,2.72
2022-09-15T11:53:00.422Z,2.22
2022-09-15T11:55:31.784Z,2.17
2022-09-15T11:58:22.062Z,3.17
2022-09-15T12:00:53.254Z,4.25
2022-09-15T12:03:37.705Z,1.75
2022-09-15T12:06:16.921Z,2.38
2022-09-15T12:08:54.810Z,2.28
2022-09-15T12:11:27.314Z,1.45
2022-09-15T12:13:56.020Z,1.33
2022-09-15T12:16:24.448Z,1.90
2022-09-15T12:19:39.397Z,1.55
2022-09-15T12:22:12.268Z,3.42
2022-09-15T12:24:45.608Z,5.43
2022-09-15T12:27:22.344Z,4.30
2022-09-15T12:30:31.030Z,2.58
2022-09-15T12:32:58.405Z,1.85
2022-09-15T12:35:25.359Z,2.67
2022-09-15T12:37:57.840Z,2.42
2022-09-15T12:40:37.456Z,2.25
2022-09-15T12:43:13.624Z,2.00
2022-09-15T12:45:43.823Z,1.90
2022-09-15T12:48:20.766Z,3.55
2022-09-15T12:51:06.268Z,1.58
2022-09-15T12:53:38.142Z,1.85
2022-09-15T12:56:10.504Z,2.67
2022-09-15T12:58:49.479Z,6.07
2022-09-15T13:01:19.776Z,2.15
2022-09-15T13:03:47.734Z,3.88
2022-09-15T13:06:25.118Z,2.45
2022-09-15T13:09:05.603Z,1.85
2022-09-15T13:11:38.546Z,2.97
2022-09-15T13:14:08.409Z,3.28
2022-09-15T13:16:52.845Z,2.92
2022-09-15T13:19:41.550Z,2.95
2022-09-15T13:22:11.685Z,2.97
2022-09-15T13:24:48.019Z,4.70
2022-09-15T13:27:21.253Z,4.05
2022-09-15T13:30:17.568Z,5.95
2022-09-15T13:32:59.650Z,4.68
2022-09-15T13:35:58.089Z,2.30
2022-09-15T13:38:32.344Z,2.67
2022-09-15T13:41:28.104Z,5.25
2022-09-15T13:44:17.994Z,2.30
2022-09-15T13:46:54.459Z,4.45
2022-09-15T13:49:39.698Z,4.50
2022-09-15T13:52:16.144Z,3.00
2022-09-15T13:55:14.684Z,2.88
2022-09-15T14:00:36.532Z,2.03
2022-09-15T14:03:13.374Z,2.08
2022-09-15T14:05:40.720Z,2.78
2022-09-15T14:08:17.730Z,3.65
2022-09-15T14:10:59.613Z,2.10
2022-09-15T14:13:29.003Z,2.67
2022-09-15T14:16:12.621Z,2.30
2022-09-15T14:18:45.383Z,4.47
2022-09-15T14:21:24.979Z,1.85
2022-09-15T14:23:55.274Z,3.78
2022-09-15T14:26:28.918Z,1.75
2022-09-15T14:28:59.435Z,2.13
2022-09-15T14:31:43.426Z,2.55
2022-09-15T14:34:20.123Z,2.47
2022-09-15T14:37:02.109Z,2.03
2022-09-15T14:39:29.368Z,3.08
2022-09-15T14:41:56.526Z,2.38
2022-09-15T14:47:28.140Z,3.53
2022-09-15T14:50:18.769Z,3.47
2022-09-15T14:53:00.418Z,2.42
2022-09-15T14:55:50.499Z,2.45
2022-09-15T14:58:25.140Z,1.40
2022-09-15T15:01:15.799Z,1.92
2022-09-15T15:04:24.716Z,2.17
2022-09-15T15:07:14.474Z,1.33
2022-09-15T15:09:51.465Z,2.20
2022-09-15T15:12:44.334Z,1.60
2022-09-15T15:15:14.004Z,3.00
2022-09-15T15:17:52.900Z,2.08
2022-09-15T15:20:23.145Z,2.92
2022-09-15T15:23:18.858Z,3.60
2022-09-15T15:25:47.175Z,3.70
2022-09-15T15:28:31.953Z,2.05
2022-09-15T15:31:20.907Z,2.90
2022-09-15T15:33:59.968Z,2.22
2022-09-15T15:36:28.996Z,1.92
2022-09-15T15:39:02.265Z,4.13
2022-09-15T15:41:32.011Z,1.40
2022-09-15T15:44:07.967Z,1.88
2022-09-15T15:46:53.418Z,2.08
2022-09-15T15:49:22.278Z,1.80
2022-09-15T15:51:49.334Z,2.55
2022-09-15T15:54:16.373Z,3.38
2022-09-15T15:56:43.428Z,2.28
2022-09-15T15:59:13.883Z,2.88
2022-09-15T16:01:41.716Z,2.28
2022-09-15T16:04:08.993Z,3.35
2022-09-15T16:06:36.570Z,2.47
2022-09-15T16:09:05.173Z,4.15
2022-09-15T16:11:32.498Z,2.10
2022-09-15T16:14:00.271Z,1.73
2022-09-15T16:16:28.343Z,2.33
2022-09-15T16:18:55.399Z,4.72
2022-09-15T16:21:37.171Z,2.47
2022-09-15T16:24:05.733Z,1.75
2022-09-15T16:26:35.727Z,4.50
2022-09-15T16:29:03.073Z,3.53
2022-09-15T16:31:31.349Z,2.25
2022-09-15T16:33:58.508Z,2.60
2022-09-15T16:36:26.744Z,1.60
2022-09-15T16:38:54.254Z,3.58
2022-09-15T16:41:28.637Z,1.75
2022-09-15T16:43:56.133Z,4.07
2022-09-15T16:46:23.386Z,2.25
2022-09-15T16:48:50.463Z,2.58
2022-09-15T16:51:27.970Z,2.80
2022-09-15T16:53:57.017Z,3.15
2022-09-15T16:56:24.003Z,2.80
2022-09-15T16:58:58.751Z,2.13
2022-09-15T17:01:27.108Z,2.65
2022-09-15T17:03:54.157Z,2.33
2022-09-15T17:06:22.352Z,7.38
2022-09-15T17:08:49.943Z,6.43
2022-09-15T17:11:20.103Z,4.93
2022-09-15T17:13:48.405Z,6.18
2022-09-15T17:16:27.718Z,3.28
2022-09-15T17:18:54.747Z,5.70
2022-09-15T17:21:21.798Z,4.18
2022-09-15T17:23:49.955Z,2.72
2022-09-15T17:26:25.456Z,2.20
2022-09-15T17:28:58.003Z,2.72
2022-09-15T17:31:25.306Z,4.15
2022-09-15T17:33:52.693Z,3.72
2022-09-15T17:36:19.708Z,4.30
2022-09-15T17:38:49.059Z,2.90
2022-09-15T17:41:22.540Z,3.28
2022-09-15T17:43:49.763Z,3.60
2022-09-15T17:46:17.285Z,5.00
2022-09-15T17:48:44.405Z,5.18
2022-09-15T17:51:17.523Z,4.05
2022-09-15T17:53:46.933Z,2.67
2022-09-15T17:56:14.146Z,2.83
2022-09-15T17:58:41.662Z,3.92
2022-09-15T18:01:12.662Z,4.38
2022-09-15T18:03:40.144Z,2.40
2022-09-15T18:06:08.581Z,3.40
2022-09-15T18:08:36.400Z,3.22
2022-09-15T18:11:05.315Z,3.25
2022-09-15T18:13:32.543Z,4.00
2022-09-15T18:16:05.666Z,4.15
2022-09-15T18:18:32.718Z,5.15
2022-09-15T18:21:00.078Z,3.05
2022-09-15T18:23:29.824Z,4.28
2022-09-15T18:25:57.413Z,3.35
2022-09-15T18:28:24.493Z,3.08
2022-09-15T18:30:52.255Z,4.00
2022-09-15T18:33:22.206Z,3.40
2022-09-15T18:35:51.618Z,4.10
2022-09-15T18:38:19.242Z,6.18
2022-09-15T18:40:53.522Z,4.07
2022-09-15T18:43:22.395Z,3.30
2022-09-15T18:45:50.590Z,5.18
2022-09-15T18:48:17.754Z,4.80
2022-09-15T18:50:45.280Z,4.60
2022-09-15T18:53:12.963Z,6.70
2022-09-15T18:55:44.017Z,4.80
2022-09-15T18:58:12.024Z,5.13
2022-09-15T19:00:40.091Z,4.25
2022-09-15T19:03:09.730Z,5.18
2022-09-15T19:05:37.636Z,5.45
2022-09-15T19:08:04.958Z,5.72
2022-09-15T19:10:32.839Z,3.10
2022-09-15T19:12:59.953Z,5.88
2022-09-15T19:15:29.415Z,10.23
2022-09-15T19:17:56.593Z,4.50
2022-09-15T19:20:24.047Z,4.63
2022-09-15T19:22:51.762Z,5.68
2022-09-15T19:25:19.467Z,6.50
2022-09-15T19:27:48.113Z,6.03
2022-09-15T19:30:15.353Z,3.80
2022-09-15T19:32:42.744Z,4.40
2022-09-15T19:35:11.423Z,6.22
2022-09-15T19:37:40.437Z,3.72
2022-09-15T19:40:10.557Z,4.95
2022-09-15T19:42:38.974Z,4.88
2022-09-15T19:45:07.152Z,3.97
2022-09-15T19:47:35.561Z,6.65
2022-09-15T19:50:03.203Z,3.03
2022-09-15T19:52:30.688Z,4.85
2022-09-15T19:54:57.813Z,5.40
2022-09-15T19:57:25.193Z,5.35
2022-09-15T19:59:52.749Z,5.90
2022-09-15T20:02:20.199Z,4.47
2022-09-15T20:04:47.865Z,6.57
2022-09-15T20:07:14.833Z,6.60
2022-09-15T20:09:42.334Z,5.28
2022-09-15T20:12:09.698Z,5.53
2022-09-15T20:14:36.804Z,4.40
2022-09-15T20:17:04.248Z,5.95
2022-09-15T20:19:32.789Z,3.03
2022-09-15T20:22:00.040Z,3.60
2022-09-15T20:24:27.104Z,3.20
2022-09-15T20:26:54.318Z,6.45
2022-09-15T20:29:22.020Z,3.50
2022-09-15T20:31:49.344Z,4.53
2022-09-15T20:34:17.023Z,3.45
2022-09-15T20:36:44.731Z,2.80
2022-09-15T20:39:14.664Z,3.88
2022-09-15T20:41:46.303Z,3.25
2022-09-15T20:44:14.108Z,7.82
2022-09-15T20:46:41.578Z,3.15
2022-09-15T20:49:09.528Z,7.70
2022-09-15T20:51:36.718Z,4.30
2022-09-15T20:54:05.083Z,3.63
2022-09-15T20:56:35.231Z,4.03
2022-09-15T20:59:04.131Z,3.85
2022-09-15T21:01:36.983Z,3.50
2022-09-15T21:04:05.209Z,3.60
2022-09-15T21:06:32.815Z,3.40
2022-09-15T21:09:00.508Z,4.50
2022-09-15T21:11:29.047Z,3.97
2022-09-15T21:13:57.410Z,3.45
2022-09-15T21:16:27.649Z,2.92
2022-09-15T21:18:56.686Z,5.90
2022-09-15T21:21:26.428Z,3.00
2022-09-15T21:23:55.918Z,3.13
2022-09-15T21:26:32.136Z,2.57
2022-09-15T21:29:02.140Z,2.30
2022-09-15T21:31:44.140Z,2.43
2022-09-15T21:34:19.993Z,6.43
2022-09-15T21:36:48.374Z,4.03
2022-09-15T21:39:18.434Z,3.90
2022-09-15T21:41:56.169Z,5.43
2022-09-15T21:44:25.674Z,4.30
2022-09-15T21:46:58.103Z,3.97
2022-09-15T21:49:28.137Z,5.80
2022-09-15T21:52:01.329Z,5.82
2022-09-15T21:54:32.639Z,4.05
2022-09-15T21:57:05.226Z,3.53
2022-09-15T21:59:33.459Z,2.75
2022-09-15T22:02:11.883Z,3.35
2022-09-15T22:04:46.031Z,3.22
2022-09-15T22:07:25.061Z,5.85
2022-09-15T22:10:06.098Z,3.50
2022-09-15T22:12:36.523Z,7.22
2022-09-15T22:15:06.844Z,3.92
2022-09-15T22:17:36.345Z,3.15
2022-09-15T22:20:06.526Z,4.07
2022-09-15T22:22:33.709Z,3.38
2022-09-15T22:25:01.173Z,3.80
2022-09-15T22:27:29.263Z,3.88
2022-09-15T22:29:57.130Z,4.25
2022-09-15T22:32:45.758Z,3.42
2022-09-15T22:35:25.299Z,5.63
2022-09-15T22:37:54.915Z,4.43
2022-09-15T22:40:25.388Z,5.35
2022-09-15T22:42:53.509Z,6.43
2022-09-15T22:45:23.119Z,6.70
2022-09-15T22:47:51.033Z,4.63
2022-09-15T22:50:21.023Z,7.97
2022-09-15T22:53:04.068Z,7.47
2022-09-15T22:55:44.408Z,5.50
2022-09-15T22:58:13.020Z,5.28
2022-09-15T23:00:42.631Z,3.95
2022-09-15T23:03:12.441Z,7.20
2022-09-15T23:05:43.055Z,4.60
2022-09-15T23:08:16.763Z,5.68
2022-09-15T23:10:52.887Z,3.33
2022-09-15T23:13:21.373Z,4.45
2022-09-15T23:15:51.265Z,3.72
2022-09-15T23:18:19.895Z,3.65
2022-09-15T23:20:48.128Z,5.75
2022-09-15T23:23:20.608Z,3.88
2022-09-15T23:25:56.253Z,3.60
2022-09-15T23:28:25.727Z,5.00
2022-09-15T23:30:57.640Z,5.18
2022-09-15T23:33:29.819Z,6.22
2022-09-15T23:36:12.410Z,4.00
2022-09-15T23:38:43.985Z,4.32
2022-09-15T23:41:17.144Z,2.88
2022-09-15T23:43:46.572Z,9.27
2022-09-15T23:46:16.255Z,3.50
2022-09-15T23:48:48.323Z,3.75
2022-09-15T23:51:26.340Z,2.60
2022-09-15T23:54:02.878Z,4.25
2022-09-15T23:56:51.322Z,4.55
2022-09-15T23:59:27.634Z,4.68
